This is the latest recevied weather packets stored in our database for station/object VK5TRM-14. If no packets are shown the sender has not sent any weather packets the latest 10 day(s).
| Time | Temp. | Humidity | Pressure | Rain* | Wind** | Luminosity | Snow |
|---|---|---|---|---|---|---|---|
| 1777942805 | 15.56° C | 75% | 1023.4 hPa | 0 mm | - | - | - |
| 1777941905 | 15.56° C | 75% | 1023.4 hPa | 0 mm | - | - | - |
| 1777941005 | 15° C | 81% | 1023.4 hPa | 0 mm | - | - | - |
| 1777940105 | 15° C | 81% | 1023.4 hPa | 0 mm | - | - | - |
| 1777939206 | 13.33° C | 86% | 1023.2 hPa | 0 mm | - | - | - |
| 1777938305 | 13.33° C | 86% | 1023.2 hPa | 0 mm | - | - | - |
| 1777937405 | 12.78° C | 92% | 1023.2 hPa | 0 mm | - | - | - |
| 1777936505 | 12.78° C | 92% | 1023.2 hPa | 0 mm | - | - | - |
| 1777935605 | 11.11° C | 96% | 1022.9 hPa | 0 mm | - | - | - |
| 1777934705 | 11.11° C | 96% | 1022.9 hPa | 0 mm | - | - | - |
| 1777933805 | 9.44° C | 97% | 1022.4 hPa | 0 mm | - | - | - |
| 1777932905 | 9.44° C | 97% | 1022.4 hPa | 0 mm | - | - | - |
| 1777932005 | 8.33° C | 97% | 1022 hPa | 0 mm | - | - | - |
| 1777931105 | 8.33° C | 97% | 1022 hPa | 0 mm | - | - | - |
| 1777930205 | 7.78° C | 97% | 1021.5 hPa | 0 mm | - | - | - |
| 1777929305 | 7.78° C | 97% | 1021.5 hPa | 0 mm | - | - | - |
| 1777928405 | 7.78° C | 97% | 1021.2 hPa | 0 mm | - | - | - |
| 1777927505 | 7.78° C | 97% | 1021.2 hPa | 0 mm | - | - | - |
| 1777926605 | 7.22° C | 96% | 1021.1 hPa | 0 mm | - | - | - |
| 1777925705 | 7.22° C | 96% | 1021.1 hPa | 0 mm | - | - | - |
| 1777924806 | 7.78° C | 96% | 1020.9 hPa | 0 mm | - | - | - |
| 1777923905 | 7.78° C | 96% | 1020.9 hPa | 0 mm | - | - | - |
| 1777923005 | 8.33° C | 96% | 1020.6 hPa | 0 mm | - | - | - |
| 1777922105 | 8.33° C | 96% | 1020.6 hPa | 0 mm | - | - | - |
| 1777921205 | 8.33° C | 95% | 1020.4 hPa | 0 mm | - | - | - |
* Rain since midnight (hover to see other rain measurements)
** Current wind speed in m/s (hover to see current wind gust speed)